Sibi Weather



Sibi's Current Weather

Temprature 43.44o clear sky

clear sky

Rain: 0 %

Min Temprature43.44o
Max Temprature43.44o
Humidity6
Wind Speed1.93 m/h
Sun Rise05:33:37
Sun Set19:32:12
Current Time: 05-Jul-2020 18:42:44
Lat/Lon: 29.54, 67.88




Sibi's Geo Location



Sibi's Weather Forecast

Time Overall Temp Min Temp Max Temp Humidity Wind Speed Rain
05-Jul-2020 (Sun)
20:00:00 clear sky 43.560 39.780 43.560 7 2.28 m/h 0 %
23:00:00 clear sky 39.460 37.340 39.460 25 5.4 m/h 0 %
06-Jul-2020 (Mon)
02:00:00 clear sky 36.260 35.520 36.260 34 2.82 m/h 0 %
05:00:00 light rain 34.080 33.970 34.080 39 1.89 m/h 56 %
08:00:00 light rain 34.460 34.460 34.460 40 2.41 m/h 134 %
11:00:00 light rain 37.010 37.010 37.010 35 1.36 m/h 144 %
14:00:00 clear sky 40.800 40.800 40.800 27 1.58 m/h 0 %
17:00:00 clear sky 42.960 42.960 42.960 22 3.91 m/h 0 %
20:00:00 clear sky 36.840 36.840 36.840 35 7.03 m/h 0 %
23:00:00 light rain 35.380 35.380 35.380 38 0.76 m/h 136 %
07-Jul-2020 (Tue)
02:00:00 clear sky 34.590 34.590 34.590 40 2.36 m/h 0 %
05:00:00 scattered clouds 34.180 34.180 34.180 41 0.49 m/h 0 %
08:00:00 broken clouds 35.690 35.690 35.690 37 2.52 m/h 0 %
11:00:00 scattered clouds 39.800 39.800 39.800 27 0.95 m/h 0 %
14:00:00 few clouds 43.410 43.410 43.410 20 2.66 m/h 0 %
17:00:00 clear sky 44.470 44.470 44.470 16 1.62 m/h 0 %
20:00:00 clear sky 41.870 41.870 41.870 21 5.43 m/h 0 %
23:00:00 scattered clouds 40.500 40.500 40.500 24 3.23 m/h 0 %
08-Jul-2020 (Wed)
02:00:00 broken clouds 38.360 38.360 38.360 29 2.38 m/h 0 %
05:00:00 broken clouds 36.210 36.210 36.210 35 1.46 m/h 0 %
08:00:00 broken clouds 38.110 38.110 38.110 30 1.15 m/h 0 %
11:00:00 broken clouds 41.890 41.890 41.890 24 2.47 m/h 0 %
14:00:00 scattered clouds 45.170 45.170 45.170 17 2.92 m/h 0 %
17:00:00 broken clouds 46.370 46.370 46.370 14 3.83 m/h 0 %
20:00:00 scattered clouds 41.740 41.740 41.740 27 9.14 m/h 0 %
23:00:00 scattered clouds 40.460 40.460 40.460 27 3.29 m/h 0 %
09-Jul-2020 (Thu)
02:00:00 scattered clouds 38.890 38.890 38.890 30 1.94 m/h 0 %
05:00:00 broken clouds 36.670 36.670 36.670 39 4.33 m/h 0 %
08:00:00 broken clouds 36.920 36.920 36.920 43 4.31 m/h 0 %
11:00:00 scattered clouds 39.920 39.920 39.920 35 3.06 m/h 0 %
14:00:00 clear sky 44.160 44.160 44.160 20 2.8 m/h 0 %
17:00:00 clear sky 46.110 46.110 46.110 15 3.89 m/h 0 %
20:00:00 clear sky 43.930 43.930 43.930 15 4.98 m/h 0 %
23:00:00 clear sky 41.620 41.620 41.620 23 5.99 m/h 0 %
10-Jul-2020 (Fri)
02:00:00 clear sky 38.820 38.820 38.820 33 4.32 m/h 0 %
05:00:00 clear sky 36.870 36.870 36.870 39 2.49 m/h 0 %
08:00:00 clear sky 37.670 37.670 37.670 40 3.43 m/h 0 %
11:00:00 clear sky 40.760 40.760 40.760 31 1.53 m/h 0 %
14:00:00 clear sky 45.330 45.330 45.330 16 3.52 m/h 0 %
17:00:00 clear sky 46.480 46.480 46.480 14 5.53 m/h 0 %

Famous Cities (60)